createdAt,value
2018-10-11T00:04:11.862Z,21.15
2018-10-11T00:09:08.308Z,23.38
2018-10-11T00:14:01.628Z,19.85
2018-10-11T00:18:54.883Z,20.80
2018-10-11T00:23:48.202Z,21.33
2018-10-11T00:28:41.363Z,20.40
2018-10-11T00:33:34.756Z,24.77
2018-10-11T00:38:27.916Z,20.57
2018-10-11T00:43:21.127Z,20.72
2018-10-11T00:48:14.392Z,22.13
2018-10-11T00:53:08.058Z,25.80
2018-10-11T00:58:01.307Z,20.97
2018-10-11T01:02:54.628Z,20.23
2018-10-11T01:07:48.872Z,19.73
2018-10-11T01:12:42.150Z,20.70
2018-10-11T01:17:35.410Z,21.62
2018-10-11T01:22:28.644Z,20.62
2018-10-11T01:27:21.893Z,23.57
2018-10-11T01:32:15.382Z,20.48
2018-10-11T01:37:08.782Z,22.65
2018-10-11T01:42:02.062Z,17.77
2018-10-11T01:46:55.335Z,23.35
2018-10-11T01:51:48.590Z,21.60
2018-10-11T01:56:42.099Z,18.50
2018-10-11T02:01:35.831Z,21.30
2018-10-11T02:06:29.036Z,21.02
2018-10-11T02:11:22.416Z,17.25
2018-10-11T02:16:15.683Z,17.87
2018-10-11T02:21:08.982Z,20.45
2018-10-11T02:26:02.267Z,19.05
2018-10-11T02:30:55.663Z,21.00
2018-10-11T02:35:48.849Z,18.35
2018-10-11T02:40:42.255Z,18.80
2018-10-11T02:45:35.506Z,18.30
2018-10-11T02:50:28.810Z,18.25
2018-10-11T02:55:25.003Z,17.75
2018-10-11T03:00:18.408Z,17.25
2018-10-11T03:05:14.427Z,15.90
2018-10-11T03:10:07.721Z,17.80
2018-10-11T03:15:00.954Z,14.05
2018-10-11T03:19:54.845Z,22.82
2018-10-11T03:24:48.588Z,19.15
2018-10-11T03:29:42.081Z,14.68
2018-10-11T03:34:35.510Z,14.07
2018-10-11T03:39:29.325Z,19.75
2018-10-11T03:44:22.685Z,14.83
2018-10-11T03:49:16.147Z,18.57
2018-10-11T03:54:09.527Z,17.60
2018-10-11T03:59:03.144Z,15.23
2018-10-11T04:03:57.254Z,21.00
2018-10-11T04:08:50.719Z,18.73
2018-10-11T04:13:44.411Z,17.62
2018-10-11T04:18:38.037Z,17.73
2018-10-11T04:23:31.752Z,21.17
2018-10-11T04:28:25.789Z,19.55
2018-10-11T04:33:19.147Z,21.15
2018-10-11T04:38:12.507Z,20.68
2018-10-11T04:43:06.028Z,17.87
2018-10-11T04:47:59.197Z,24.37
2018-10-11T04:52:52.477Z,22.93
2018-10-11T04:57:45.824Z,20.97
2018-10-11T05:02:39.316Z,21.82
2018-10-11T05:07:32.707Z,21.27
2018-10-11T05:12:26.150Z,17.57
2018-10-11T05:17:19.612Z,20.50
2018-10-11T05:22:12.955Z,19.77
2018-10-11T05:27:07.382Z,22.00
2018-10-11T05:32:00.707Z,16.20
2018-10-11T05:36:54.430Z,20.17
2018-10-11T05:41:47.814Z,20.27
2018-10-11T05:46:41.731Z,16.32
2018-10-11T05:51:35.517Z,18.98
2018-10-11T05:56:30.562Z,18.85
2018-10-11T06:01:24.050Z,22.55
2018-10-11T06:06:17.664Z,19.73
2018-10-11T06:11:11.257Z,24.55
2018-10-11T06:16:04.593Z,22.02
2018-10-11T06:20:58.041Z,20.90
2018-10-11T06:25:51.462Z,28.73
2018-10-11T06:30:45.120Z,20.17
2018-10-11T06:35:38.711Z,21.20
2018-10-11T06:40:36.458Z,16.67
2018-10-11T06:45:30.380Z,17.00
2018-10-11T06:50:23.942Z,19.77
2018-10-11T06:55:17.447Z,23.38
2018-10-11T07:00:11.050Z,19.42
2018-10-11T07:05:04.702Z,19.57
2018-10-11T07:09:58.314Z,16.82
2018-10-11T07:14:52.715Z,21.20
2018-10-11T07:19:46.310Z,15.68
2018-10-11T07:24:39.738Z,20.05
2018-10-11T07:29:33.283Z,16.35
2018-10-11T07:34:26.478Z,21.40
2018-10-11T07:39:19.857Z,17.77
2018-10-11T07:44:13.279Z,18.75
2018-10-11T07:49:07.487Z,20.25
2018-10-11T07:54:01.352Z,17.73
2018-10-11T07:58:54.833Z,18.95
2018-10-11T08:03:48.300Z,20.55
2018-10-11T08:08:41.558Z,17.42
2018-10-11T08:13:34.971Z,18.87
2018-10-11T08:18:28.314Z,24.10
2018-10-11T08:23:21.777Z,19.02
2018-10-11T08:28:15.289Z,17.65
2018-10-11T08:33:08.733Z,17.50
2018-10-11T08:38:02.467Z,18.55
2018-10-11T08:42:55.732Z,17.90
2018-10-11T08:47:49.352Z,14.83
2018-10-11T08:52:42.685Z,22.07
2018-10-11T08:57:36.348Z,13.85
2018-10-11T09:02:29.756Z,15.15
2018-10-11T09:07:23.209Z,14.73
2018-10-11T09:12:16.481Z,11.73
2018-10-11T09:17:09.802Z,11.00
2018-10-11T09:22:03.037Z,11.35
2018-10-11T09:26:56.503Z,13.55
2018-10-11T09:31:49.895Z,11.93
2018-10-11T09:36:43.138Z,13.35
2018-10-11T09:41:36.830Z,10.38
2018-10-11T09:46:30.394Z,11.55
2018-10-11T09:51:23.544Z,12.25
2018-10-11T09:56:16.967Z,13.38
2018-10-11T10:01:15.672Z,11.60
2018-10-11T10:06:09.495Z,13.05
2018-10-11T10:11:02.824Z,13.70
2018-10-11T10:15:56.087Z,12.63
2018-10-11T10:20:49.354Z,14.23
2018-10-11T10:25:42.610Z,13.03
2018-10-11T10:30:41.195Z,13.15
2018-10-11T10:35:34.389Z,13.32
2018-10-11T10:40:27.633Z,15.28
2018-10-11T10:45:21.073Z,12.98
2018-10-11T10:50:14.391Z,10.68
2018-10-11T10:55:07.905Z,15.10
2018-10-11T11:00:02.136Z,14.18
2018-10-11T11:04:55.339Z,14.23
2018-10-11T11:09:48.600Z,16.67
2018-10-11T11:14:42.840Z,16.00
2018-10-11T11:19:36.133Z,16.70
2018-10-11T11:24:30.008Z,16.87
2018-10-11T11:29:23.295Z,15.23
2018-10-11T11:34:16.567Z,18.67
2018-10-11T11:39:14.030Z,14.00
2018-10-11T11:44:08.333Z,16.23
2018-10-11T11:49:01.521Z,15.30
2018-10-11T11:53:55.165Z,16.85
2018-10-11T11:58:49.352Z,18.20
2018-10-11T12:03:42.705Z,17.25
2018-10-11T12:08:36.575Z,18.10
2018-10-11T12:13:29.747Z,17.23
2018-10-11T12:18:23.336Z,20.08
2018-10-11T12:23:16.602Z,15.75
2018-10-11T12:28:10.103Z,18.73
2018-10-11T12:33:06.565Z,18.77
2018-10-11T12:38:00.411Z,15.25
2018-10-11T12:42:53.782Z,16.00
2018-10-11T12:47:47.174Z,19.45
2018-10-11T12:52:41.586Z,20.32
2018-10-11T12:57:34.866Z,18.07
2018-10-11T13:02:29.607Z,19.70
2018-10-11T13:07:22.781Z,16.90
2018-10-11T13:12:16.182Z,19.85
2018-10-11T13:17:11.921Z,20.50
2018-10-11T13:22:05.366Z,18.17
2018-10-11T13:26:59.794Z,19.62
2018-10-11T13:31:53.381Z,19.40
2018-10-11T13:36:46.745Z,24.45
2018-10-11T13:41:40.411Z,21.70
2018-10-11T13:46:33.704Z,20.48
2018-10-11T13:51:33.249Z,20.72
2018-10-11T13:56:28.761Z,20.80
2018-10-11T14:01:22.865Z,21.48
2018-10-11T14:06:17.288Z,24.35
2018-10-11T14:11:12.186Z,18.70
2018-10-11T14:16:05.619Z,24.72
2018-10-11T14:20:59.381Z,22.52
2018-10-11T14:25:53.240Z,22.20
2018-10-11T14:30:47.212Z,23.10
2018-10-11T14:35:40.543Z,23.87
2018-10-11T14:40:34.165Z,21.42
2018-10-11T14:45:27.437Z,21.37
2018-10-11T14:50:25.433Z,22.07
2018-10-11T14:55:18.796Z,24.47
2018-10-11T15:00:12.168Z,26.77
2018-10-11T15:05:05.664Z,20.40
2018-10-11T15:09:59.408Z,22.98
2018-10-11T15:14:52.728Z,21.82
2018-10-11T15:19:48.730Z,21.77
2018-10-11T15:24:42.298Z,22.00
2018-10-11T15:29:35.675Z,23.47
2018-10-11T15:34:29.279Z,22.40
2018-10-11T15:39:25.823Z,23.05
2018-10-11T15:44:19.839Z,20.65
2018-10-11T15:49:16.943Z,23.83
2018-10-11T15:54:10.387Z,22.87
2018-10-11T15:59:04.830Z,23.75
2018-10-11T16:03:58.031Z,24.15
2018-10-11T16:08:53.063Z,26.48
2018-10-11T16:13:46.519Z,20.57
2018-10-11T16:18:39.918Z,23.57
2018-10-11T16:23:33.527Z,26.93
2018-10-11T16:28:26.735Z,28.02
2018-10-11T16:33:23.160Z,26.25
2018-10-11T16:38:18.383Z,26.65
2018-10-11T16:43:13.949Z,26.60
2018-10-11T16:48:08.045Z,25.52
2018-10-11T16:53:05.419Z,24.50
2018-10-11T16:58:00.947Z,25.97
2018-10-11T17:02:56.632Z,27.50
2018-10-11T17:07:51.719Z,27.67
2018-10-11T17:12:47.477Z,24.25
2018-10-11T17:17:41.548Z,23.40
2018-10-11T17:22:36.130Z,25.77
2018-10-11T17:27:32.556Z,25.68
2018-10-11T17:32:28.021Z,25.05
2018-10-11T17:37:21.467Z,25.52
2018-10-11T17:42:16.466Z,27.85
2018-10-11T17:47:09.812Z,26.68
2018-10-11T17:52:03.179Z,27.48
2018-10-11T17:57:00.369Z,27.75
2018-10-11T18:01:55.636Z,27.65
2018-10-11T18:06:49.393Z,27.13
2018-10-11T18:11:43.890Z,26.97
2018-10-11T18:16:38.402Z,26.30
2018-10-11T18:21:31.906Z,30.00
2018-10-11T18:26:25.703Z,23.75
2018-10-11T18:31:21.293Z,28.20
2018-10-11T18:36:15.342Z,22.25
2018-10-11T18:41:15.264Z,27.05
2018-10-11T18:46:09.062Z,27.40
2018-10-11T18:51:05.093Z,24.43
2018-10-11T18:55:58.327Z,22.00
2018-10-11T19:00:53.349Z,23.45
2018-10-11T19:05:46.697Z,25.50
2018-10-11T19:10:40.612Z,22.52
2018-10-11T19:15:35.077Z,22.93
2018-10-11T19:20:31.323Z,23.98
2018-10-11T19:25:25.224Z,22.87
2018-10-11T19:30:18.869Z,21.60
2018-10-11T19:35:12.597Z,25.57
2018-10-11T19:40:06.239Z,24.60
2018-10-11T19:45:00.471Z,24.15
2018-10-11T19:49:54.593Z,22.25
2018-10-11T19:54:48.385Z,29.87
2018-10-11T19:59:42.024Z,21.27
2018-10-11T20:04:35.579Z,25.80
2018-10-11T20:09:28.887Z,23.65
2018-10-11T20:14:22.529Z,22.25
2018-10-11T20:19:16.269Z,23.90
2018-10-11T20:24:10.171Z,22.50
2018-10-11T20:29:03.632Z,20.55
2018-10-11T20:33:57.275Z,24.75
2018-10-11T20:38:51.265Z,20.15
2018-10-11T20:43:45.602Z,19.12
2018-10-11T20:48:39.390Z,23.45
2018-10-11T20:53:32.789Z,22.10
2018-10-11T20:58:26.353Z,20.43
2018-10-11T21:03:19.808Z,22.32
2018-10-11T21:08:13.220Z,23.27
2018-10-11T21:13:07.125Z,23.35
2018-10-11T21:18:01.734Z,19.70
2018-10-11T21:22:55.279Z,20.88
2018-10-11T21:27:49.885Z,21.48
2018-10-11T21:32:43.304Z,22.00
2018-10-11T21:37:37.670Z,20.02
2018-10-11T21:42:30.999Z,21.10
2018-10-11T21:47:24.376Z,24.72
2018-10-11T21:52:17.687Z,24.57
2018-10-11T21:57:11.535Z,17.82
2018-10-11T22:02:06.118Z,23.87
2018-10-11T22:06:59.381Z,20.43
2018-10-11T22:11:53.263Z,20.20
2018-10-11T22:16:46.689Z,20.97
2018-10-11T22:21:40.350Z,20.15
2018-10-11T22:26:33.894Z,19.55
2018-10-11T22:31:27.518Z,20.20
2018-10-11T22:36:20.718Z,22.00
2018-10-11T22:41:14.191Z,17.37
2018-10-11T22:46:08.608Z,18.87
2018-10-11T22:51:03.637Z,19.02
2018-10-11T22:55:56.979Z,21.37
2018-10-11T23:00:50.366Z,22.85
2018-10-11T23:05:44.624Z,21.80
2018-10-11T23:10:38.198Z,24.57
2018-10-11T23:15:31.690Z,21.02
2018-10-11T23:20:24.983Z,22.60
2018-10-11T23:25:18.625Z,21.95
2018-10-11T23:30:12.634Z,25.37
2018-10-11T23:35:06.552Z,23.02
2018-10-11T23:40:00.457Z,26.27
2018-10-11T23:44:55.215Z,12.40
2018-10-11T23:49:48.754Z,22.75
2018-10-11T23:54:43.122Z,19.37
2018-10-11T23:59:37.555Z,21.25
